Timeline UpdatesTrip UpdatesNews PostsPvt PostsTravel TipsAdmin PostsConv PostsFollowed PostsChat RequestsBlog PostsPNR Posts

Disclaimer
Search
 
 
Tue Sep 2, 2014 19:35:03 ISTHomeTrainsΣChainsAtlasPNRForumGalleryNewsFAQTripsMembersLoginFeedback
No Recent News for this Train
Other Trains in the News **new
Latest...
..
Tue Mar 18, 2014 (09:17AM)
⇐ Return Journey: Train# 13307

13308/Ganga Sutlej Express

Time-Table HAS CHANGED.
Today (1:03AM)
Change Departure Station:
Change Arrival Station:
Post a Train Travel TipPost a Train Travel Tip **new
Post a Comment/Question/Picture/VideoPost a Comment/Question/Picture/Video
Pantry/Catering
✕ NO Pantry Car
✕ NO Catering
RSA - Rake Sharing
No Rake Sharing.
Rake/Coach Composition
SLR-GEN-GEN-S1-S2-S3-S4-S5-S6-S7-S8-B1-A1-GEN-GEN-GEN-GEN-HCPV-SLR>Loco
Loco
LDH-WDM 3A
News    PNR    Forum    Time-Table    Availability    Fare Chart    Map    Arr/Dep History    Trips    Gallery    ΣChains    X/O    Timeline    
Travel Time: 17h 45m    33 halts    Distance: 857 km    Avg Speed: 48 km/hr
Type: Mail/Express
Zone: ECR/East Central
Departs @ 18:25
Platform# 4
SMTWTFS
Firozpur Cantt. Junction/FZR 
Arrives @ 12:10 +1 night
Platform# 2
SMTWTFS
Lucknow Charbagh/LKO 

33 halts. 133 intermediate Stations between Firozpur Cantt. Junction and Lucknow Charbagh

Show ALL intermediate Stations  Show Old Time-Table

#CodeStation NameX/OArrivesAvgDepartsAvgHaltPFDay#KmSpeedElevZoneAddress
1FZR»Firozpur Cantt. Junction (5)»  -18:25-410.069200mNRFirozpur Cantt 152001, Punjab
2MXHMakhuX  19:01-19:03-2m--141.337203mNRMakhu, Punjab
3LNKLohian Khas Junction  19:43-19:45-2m--165.858216mNRMalsian Rd, Punjab
4MQSMalsian ShahkotX  20:08 20:06-20:10 20:08-2m--185.941228mNRShahkot-Moga Rd, Punjab
5NRONakodar Junction  20:33 20:25-20:35 20:27-2m--197.739231mNRNakodar, Punjab
6NRMNurmahal  20:46-20:48-2m--1110.130237mNRPhilur Nurmahal Rd, Punjab
7PHRPhillaur Junction (3)  21:18 21:28-21:20 21:30-2m11129.931246mNRPhillaur, Punjab
8LDHLudhiana Junction (7)O  21:35 21:55-21:45 22:05-10m31143.032246mNRLudhiana 141001, Punjab
9DDLDhandari Kalan (3)X  22:06 22:19-22:08 22:21-2m21150.573254mNRDhandari Kalan, Punjab
10KNNKhanna (3)X  22:42 22:50-22:44 22:52-2m21185.961269mNRNH 1, Punjab
11GVGMandi Gobindgarh (2)XO  22:52 23:00-22:54 23:02-2m11194.053268mNRMandi Gobindgarh, Punjab
12SIRSirhind Junction (3)  23:05 23:13-23:07 23:15-2m21203.843271mNRSirhind, Punjab
13RPJRajpura Junction (3)X  23:28 23:50-23:30 23:52-2m21228.659272mNRNH-1, Punjab
14UBCAmbala City (3)XO  23:50 00:13-23:52 00:15-2m12249.120273mNRNH-1, Haryana
15UMBAmbala Cantt. Junction (7)X  00:15 00:38-00:25 00:48-10m12256.674278mNRAmbala 133001, Haryana
16RAABarara (2)X  00:46 01:08-00:48 01:10-2m12281.479279mNRBarara, Haryana
17JUDYamunanagar-Jagadhri (3)X  01:13 01:30-01:15 01:32-2m22307.742275mNRYamunanagar, Haryana
18SRESaharanpur Junction (6)X  02:15-02:25-10m32337.869276mNRSaharanpur, Uttar Pradesh
19RKRoorkee (3)X  02:55-02:57-2m12372.546264mNRRoorkee - 247667, Uttarakhand
20LRJLaksar Junction (4)X  03:20-03:25-5m--2390.372238mNRLaksar, Uttarakhand
21NBDNajibabad Junction (3)X  04:00-04:05-5m12432.284269mNRNajibabad, Uttar Pradesh
22NGGNagina (3)  04:21-04:23-2m--2454.763247mNRNagina, Uttar Pradesh
23DPRDhampur  04:39-04:41-2m--2471.463236mNRDhampur, Uttar Pradesh
24SEOSeohara  04:54-04:56-2m--2485.266224mNRSeohara, Uttar Pradesh
25KNTKanth  05:11-05:13-2m--2501.834221mNRKanth, Uttar Pradesh
26MBMoradabad Junction (7)X  06:05-06:15-10m12531.258201mNRMoradabad, Uttar Pradesh
27RMURampur Junction (3)X  06:45 06:43-06:47 06:45-2m--2558.463190mNRRampur, Uttar Pradesh
28BEBareilly Junction (4)X  07:48 07:45-07:53 07:50-5m--2621.570174mNRBareilly, Uttar Pradesh
29PMRPitambarpur  08:09 08:07-08:11 08:09-2m--2641.372171mNRPitambarpur, Uttar Pradesh
30TLHTilharX  08:42 08:36-08:44 08:38-2m--2673.838163mNRTilhar, Uttar Pradesh
31SPNShahjahanpur Junction (3)  09:07-09:12-5m--2692.077156mNRShahjahanpur, Uttar Pradesh
32AJIAnjhi Shahabad  09:36-09:38-2m--2722.872148mNRAnjhi Shahabad, Uttar Pradesh
33HRIHardoi (5)X  10:05-10:07-2m32755.064146mNRHardoi, Uttar Pradesh
34BLMBalamu Junction (4)  10:38-10:40-2m--2788.046139mNRBalamau, Uttar Pradesh
35LKO•Lucknow Charbagh (9)•  12:10-12:25-15m22856.843123mNR226004, Uttar Pradesh
36BBKBarabanki Junction (4)X  13:05-13:07-2m--2885.474122mNRPin-225001, Uttar Pradesh
37DYDDaryabadX  13:38-13:40-2m--2923.464116mNRFaizabad Rd, Uttar Pradesh
38PTHPatranga  13:48-13:50-2m--2931.973113mNRFaizabad Rd, Uttar Pradesh
39RDLRudauli (2)  14:02-14:04-2m--2946.555112mNRRudauli, Uttar Pradesh
40SLWSohwal  14:29-14:31-2m--2969.448107mNRFaizabad Rd, Uttar Pradesh
41FDFaizabad Junction (5)X  14:50-14:55-5m--2984.614104mNRFaizabad, Uttar Pradesh
42ACNDAcharya Narendra Dev NagarX  15:04-15:06-2m--2986.818104mNRFaizabad, Uttar Pradesh
43AYAyodhya Junction (3)X  15:21-15:23-2m--2991.35698mNRAyodhya, Uttar Pradesh
44GGJGoshainGanj (3)  15:57-15:59-2m--21023.04498mNRGoshainganj, Uttar Pradesh
45ABPAkbarpur (2)X  16:29-16:31-2m--21045.24492mNRAkbarpur, Uttar Pradesh
46MLPRMalipur (2)X  16:57-16:59-2m--21064.34792mNRMalipur, Uttar Pradesh
47BWIBilwai (1)X  17:17-17:19-2m121078.42591mNRBilwai, Uttar Pradesh
48SHGShahganj Junction (4)  17:45-17:49-4m321089.36490mNRShahganj, Uttar Pradesh
49KSKheta Sarai (1)X  18:01 17:59-18:03 18:01-2m121100.06488mNRKheta Sarai, Uttar Pradesh
50MIHMihrawan (1)  18:13 18:11-18:15 18:13-2m121110.66088mNRChak Bhavani Shanker, Uttar Pradesh
51JNUJaunpur Junction (5)  18:27 18:25-18:29 18:27-2m121122.73283mNRJaunpur, Uttar Pradesh
52ZBDZafarabad Junction (4)X  18:39-18:41-2m--21129.13883mNRNational Highway 56, Uttar Pradesh
53JLLJalalGanj (2)  19:00-19:02-2m--21141.22787mNRJalalganj Railway Station, Uttar Pradesh
54BSBVaranasi Junction (9)X  20:30-20:50 20:45-20 15m821180.32782mNRVaranasi 221002, Uttar Pradesh
55KEIKashi (3)  21:00 20:57-21:03 20:59-3 2m--21185.71485mNRVaranasi, Uttar Pradesh
56MGSMughal Sarai Junction (8)  21:45-22:05-20m121196.66783mECRMughalsarai 232101, Uttar Pradesh
57SYJSaidrajaX  22:31 22:28-22:33 22:30-2m--21222.48680mECRSaiyedraja, Uttar Pradesh
58BBUBhabua Road (4)  22:53 22:50-22:55 22:52-2m--21251.27980mECR06187-222222, Bihar
59KTQKudra (2)X  23:11 23:09-23:13 23:11-2m--21273.57292mECRKudra, Bihar
60SSMSasaram Junction (4)X  23:32-23:34-2m--21298.862111mECR06184-222051, Bihar
61DOSDehri On Sone (6)  23:51-23:53-2m--21316.477114mECRRohtas(06184-253154), Bihar
62AUBRAnugraha Narayan Road (4)X  00:06-00:08-2m--31333.063104mECR06186-285271, Bihar
63GAYAGaya Junction (9)  01:13-01:18-5m231401.562117mECR0631-2220283, Bihar
64KQRKoderma Junction (7)X  02:32-02:34-2m--31477.883399mECR06534-222410 Koderma, Jharkhand
65HZDHazaribagh Road (3)  03:09-03:11-2m--31526.260330mECRHazaribagh, Jharkhand
66PNMEParasnath (5)XO  03:33 03:38-03:34 03:40-1 2m--31553.247282mECRGiridih 06532-233419, Jharkhand
67GMONetaji SC Bose Gomoh Junction (6)  04:03-04:08-5m--31571.383239mECRGomoh, Jharkhand
68TETTetulmari  04:23-04:25-2m--31591.918225mECRTetulmari, Jharkhand
69DHNDhanbad Junction (8)  04:55--131601.1-235mECR2319801. Div. HQ ECR, Jharkhand
Scroll to Top
Scroll to Bottom